sensor_id;sensor_type;location;lat;lon;timestamp;pressure;altitude;pressure_sealevel;temperature
71640;BMP280;60912;48.968;10.124;2023-08-06T00:02:21;95889.53;;;17.62
71640;BMP280;60912;48.968;10.124;2023-08-06T00:04:46;95882.28;;;17.57
71640;BMP280;60912;48.968;10.124;2023-08-06T00:07:18;95881.19;;;17.51
71640;BMP280;60912;48.968;10.124;2023-08-06T00:09:51;95886.25;;;17.29
71640;BMP280;60912;48.968;10.124;2023-08-06T00:12:19;95877.28;;;17.19
71640;BMP280;60912;48.968;10.124;2023-08-06T00:14:49;95875.31;;;17.33
71640;BMP280;60912;48.968;10.124;2023-08-06T00:17:20;95879.44;;;17.44
71640;BMP280;60912;48.968;10.124;2023-08-06T00:19:48;95878.41;;;17.51
71640;BMP280;60912;48.968;10.124;2023-08-06T00:22:17;95870.56;;;17.36
71640;BMP280;60912;48.968;10.124;2023-08-06T00:24:45;95881.13;;;17.26
71640;BMP280;60912;48.968;10.124;2023-08-06T00:27:10;95872.19;;;17.15
71640;BMP280;60912;48.968;10.124;2023-08-06T00:29:38;95876.19;;;17.24
71640;BMP280;60912;48.968;10.124;2023-08-06T00:32:04;95862.94;;;17.36
71640;BMP280;60912;48.968;10.124;2023-08-06T00:34:29;95864.28;;;17.35
71640;BMP280;60912;48.968;10.124;2023-08-06T00:36:57;95857.97;;;17.35
71640;BMP280;60912;48.968;10.124;2023-08-06T00:39:25;95850.34;;;17.35
71640;BMP280;60912;48.968;10.124;2023-08-06T00:42:00;95858.25;;;17.39
71640;BMP280;60912;48.968;10.124;2023-08-06T00:44:33;95854.97;;;17.42
71640;BMP280;60912;48.968;10.124;2023-08-06T00:47:10;95853.72;;;17.45
71640;BMP280;60912;48.968;10.124;2023-08-06T00:49:36;95854.97;;;17.42
71640;BMP280;60912;48.968;10.124;2023-08-06T00:52:12;95847.25;;;17.29
71640;BMP280;60912;48.968;10.124;2023-08-06T00:54:42;95855.25;;;17.23
71640;BMP280;60912;48.968;10.124;2023-08-06T00:57:14;95849.69;;;17.23
71640;BMP280;60912;48.968;10.124;2023-08-06T00:59:39;95854.25;;;17.30
71640;BMP280;60912;48.968;10.124;2023-08-06T01:02:05;95849.16;;;17.38
71640;BMP280;60912;48.968;10.124;2023-08-06T01:04:33;95842.84;;;17.38
71640;BMP280;60912;48.968;10.124;2023-08-06T01:10:19;95856.28;;;17.41
71640;BMP280;60912;48.968;10.124;2023-08-06T01:15:43;95853.94;;;17.49
71640;BMP280;60912;48.968;10.124;2023-08-06T01:18:24;95837.50;;;17.53
71640;BMP280;60912;48.968;10.124;2023-08-06T01:20:50;95837.72;;;17.46
71640;BMP280;60912;48.968;10.124;2023-08-06T01:23:29;95838.25;;;17.42
71640;BMP280;60912;48.968;10.124;2023-08-06T01:29:26;95832.75;;;17.44
71640;BMP280;60912;48.968;10.124;2023-08-06T01:32:07;95828.44;;;17.41
71640;BMP280;60912;48.968;10.124;2023-08-06T01:34:40;95825.13;;;17.45
71640;BMP280;60912;48.968;10.124;2023-08-06T01:37:09;95815.50;;;17.34
71640;BMP280;60912;48.968;10.124;2023-08-06T01:40:05;95812.22;;;17.38
71640;BMP280;60912;48.968;10.124;2023-08-06T01:43:17;95808.00;;;17.25
71640;BMP280;60912;48.968;10.124;2023-08-06T01:45:55;95807.78;;;17.21
71640;BMP280;60912;48.968;10.124;2023-08-06T01:48:23;95816.38;;;17.25
71640;BMP280;60912;48.968;10.124;2023-08-06T01:50:51;95820.72;;;17.28
71640;BMP280;60912;48.968;10.124;2023-08-06T01:53:25;95814.31;;;17.26
71640;BMP280;60912;48.968;10.124;2023-08-06T01:56:01;95806.69;;;17.26
71640;BMP280;60912;48.968;10.124;2023-08-06T01:58:37;95802.91;;;17.33
71640;BMP280;60912;48.968;10.124;2023-08-06T02:01:02;95798.56;;;17.30
71640;BMP280;60912;48.968;10.124;2023-08-06T02:03:30;95799.66;;;17.25
71640;BMP280;60912;48.968;10.124;2023-08-06T02:05:59;95795.63;;;17.03
71640;BMP280;60912;48.968;10.124;2023-08-06T02:08:30;95803.09;;;17.00
71640;BMP280;60912;48.968;10.124;2023-08-06T02:11:14;95798.41;;;17.03
71640;BMP280;60912;48.968;10.124;2023-08-06T02:13:42;95781.81;;;17.05
71640;BMP280;60912;48.968;10.124;2023-08-06T02:16:19;95777.59;;;17.04
71640;BMP280;60912;48.968;10.124;2023-08-06T02:18:45;95783.59;;;17.12
71640;BMP280;60912;48.968;10.124;2023-08-06T02:21:11;95780.81;;;17.12
71640;BMP280;60912;48.968;10.124;2023-08-06T02:23:39;95769.56;;;17.10
71640;BMP280;60912;48.968;10.124;2023-08-06T02:26:11;95771.63;;;17.09
71640;BMP280;60912;48.968;10.124;2023-08-06T02:28:42;95764.00;;;17.10
71640;BMP280;60912;48.968;10.124;2023-08-06T02:31:16;95773.94;;;17.13
71640;BMP280;60912;48.968;10.124;2023-08-06T02:33:50;95766.66;;;17.08
71640;BMP280;60912;48.968;10.124;2023-08-06T02:36:37;95767.94;;;16.93
71640;BMP280;60912;48.968;10.124;2023-08-06T02:39:02;95765.75;;;16.92
71640;BMP280;60912;48.968;10.124;2023-08-06T02:41:45;95757.28;;;16.90
71640;BMP280;60912;48.968;10.124;2023-08-06T02:44:27;95762.38;;;16.93
71640;BMP280;60912;48.968;10.124;2023-08-06T02:47:15;95756.41;;;16.99
71640;BMP280;60912;48.968;10.124;2023-08-06T02:49:51;95753.63;;;16.99
71640;BMP280;60912;48.968;10.124;2023-08-06T02:52:22;95753.63;;;16.99
71640;BMP280;60912;48.968;10.124;2023-08-06T02:55:03;95759.53;;;17.05
71640;BMP280;60912;48.968;10.124;2023-08-06T03:00:28;95753.09;;;17.14
71640;BMP280;60912;48.968;10.124;2023-08-06T03:03:02;95744.13;;;17.15
71640;BMP280;60912;48.968;10.124;2023-08-06T03:05:35;95753.22;;;17.16
71640;BMP280;60912;48.968;10.124;2023-08-06T03:08:01;95746.34;;;17.05
71640;BMP280;60912;48.968;10.124;2023-08-06T03:10:28;95744.66;;;17.00
71640;BMP280;60912;48.968;10.124;2023-08-06T03:12:57;95746.34;;;17.05
71640;BMP280;60912;48.968;10.124;2023-08-06T03:15:22;95738.63;;;17.04
71640;BMP280;60912;48.968;10.124;2023-08-06T03:17:51;95735.72;;;17.02
71640;BMP280;60912;48.968;10.124;2023-08-06T03:20:19;95739.66;;;17.10
71640;BMP280;60912;48.968;10.124;2023-08-06T03:22:50;95747.28;;;17.10
71640;BMP280;60912;48.968;10.124;2023-08-06T03:25:34;95744.75;;;17.14
71640;BMP280;60912;48.968;10.124;2023-08-06T03:28:00;95736.50;;;17.16
71640;BMP280;60912;48.968;10.124;2023-08-06T03:30:25;95736.00;;;17.20
71640;BMP280;60912;48.968;10.124;2023-08-06T03:33:04;95727.03;;;17.21
71640;BMP280;60912;48.968;10.124;2023-08-06T03:35:33;95723.28;;;17.28
71640;BMP280;60912;48.968;10.124;2023-08-06T03:38:01;95713.59;;;17.29
71640;BMP280;60912;48.968;10.124;2023-08-06T03:40:30;95721.31;;;17.31
71640;BMP280;60912;48.968;10.124;2023-08-06T03:43:01;95717.72;;;17.28
71640;BMP280;60912;48.968;10.124;2023-08-06T03:45:29;95726.53;;;17.25
71640;BMP280;60912;48.968;10.124;2023-08-06T03:48:07;95725.00;;;17.10
71640;BMP280;60912;48.968;10.124;2023-08-06T03:50:32;95714.78;;;17.01
71640;BMP280;60912;48.968;10.124;2023-08-06T03:53:08;95714.41;;;16.95
71640;BMP280;60912;48.968;10.124;2023-08-06T03:55:39;95716.00;;;16.98
71640;BMP280;60912;48.968;10.124;2023-08-06T03:58:31;95710.94;;;16.94
71640;BMP280;60912;48.968;10.124;2023-08-06T04:01:00;95710.44;;;16.98
71640;BMP280;60912;48.968;10.124;2023-08-06T04:03:31;95696.50;;;16.98
71640;BMP280;60912;48.968;10.124;2023-08-06T04:06:02;95703.53;;;16.99
71640;BMP280;60912;48.968;10.124;2023-08-06T04:08:41;95700.75;;;16.99
71640;BMP280;60912;48.968;10.124;2023-08-06T04:11:06;95704.50;;;17.03
71640;BMP280;60912;48.968;10.124;2023-08-06T04:13:41;95701.59;;;17.01
71640;BMP280;60912;48.968;10.124;2023-08-06T04:16:17;95706.00;;;16.93
71640;BMP280;60912;48.968;10.124;2023-08-06T04:18:42;95702.34;;;16.90
71640;BMP280;60912;48.968;10.124;2023-08-06T04:21:24;95698.16;;;16.78
71640;BMP280;60912;48.968;10.124;2023-08-06T04:24:08;95702.59;;;16.83
71640;BMP280;60912;48.968;10.124;2023-08-06T04:26:55;95716.72;;;16.98
71640;BMP280;60912;48.968;10.124;2023-08-06T04:29:35;95706.16;;;17.08
71640;BMP280;60912;48.968;10.124;2023-08-06T04:32:05;95703.69;;;17.14
71640;BMP280;60912;48.968;10.124;2023-08-06T04:34:40;95701.47;;;17.25
71640;BMP280;60912;48.968;10.124;2023-08-06T04:37:18;95698.75;;;17.38
71640;BMP280;60912;48.968;10.124;2023-08-06T04:39:53;95693.56;;;17.58
71640;BMP280;60912;48.968;10.124;2023-08-06T04:42:19;95696.00;;;17.91
71640;BMP280;60912;48.968;10.124;2023-08-06T04:45:05;95709.38;;;19.48
71640;BMP280;60912;48.968;10.124;2023-08-06T04:47:46;95705.16;;;21.67
71640;BMP280;60912;48.968;10.124;2023-08-06T04:50:14;95693.25;;;22.47
71640;BMP280;60912;48.968;10.124;2023-08-06T04:52:49;95688.44;;;21.88
71640;BMP280;60912;48.968;10.124;2023-08-06T04:55:56;95688.84;;;21.06
71640;BMP280;60912;48.968;10.124;2023-08-06T04:58:28;95692.22;;;20.34
71640;BMP280;60912;48.968;10.124;2023-08-06T05:00:53;95697.91;;;20.05
71640;BMP280;60912;48.968;10.124;2023-08-06T05:03:24;95702.69;;;20.02
71640;BMP280;60912;48.968;10.124;2023-08-06T05:05:55;95698.94;;;19.80
71640;BMP280;60912;48.968;10.124;2023-08-06T05:08:25;95712.56;;;19.27
71640;BMP280;60912;48.968;10.124;2023-08-06T05:10:55;95705.19;;;19.04
71640;BMP280;60912;48.968;10.124;2023-08-06T05:13:26;95703.00;;;18.74
71640;BMP280;60912;48.968;10.124;2023-08-06T05:16:06;95702.03;;;18.40
71640;BMP280;60912;48.968;10.124;2023-08-06T05:18:35;95705.84;;;18.19
71640;BMP280;60912;48.968;10.124;2023-08-06T05:21:03;95699.84;;;18.25
71640;BMP280;60912;48.968;10.124;2023-08-06T05:23:28;95706.97;;;18.00
71640;BMP280;60912;48.968;10.124;2023-08-06T05:26:00;95702.78;;;17.74
71640;BMP280;60912;48.968;10.124;2023-08-06T05:28:31;95704.16;;;17.87
71640;BMP280;60912;48.968;10.124;2023-08-06T05:31:20;95715.19;;;17.85
71640;BMP280;60912;48.968;10.124;2023-08-06T05:33:49;95709.09;;;17.88
71640;BMP280;60912;48.968;10.124;2023-08-06T05:36:15;95704.47;;;17.93
71640;BMP280;60912;48.968;10.124;2023-08-06T05:38:43;95707.91;;;18.18
71640;BMP280;60912;48.968;10.124;2023-08-06T05:41:23;95702.94;;;18.03
71640;BMP280;60912;48.968;10.124;2023-08-06T05:43:49;95701.00;;;18.06
71640;BMP280;60912;48.968;10.124;2023-08-06T05:47:04;95704.13;;;17.73
71640;BMP280;60912;48.968;10.124;2023-08-06T05:49:33;95702.88;;;17.62
71640;BMP280;60912;48.968;10.124;2023-08-06T05:51:58;95707.91;;;17.52
71640;BMP280;60912;48.968;10.124;2023-08-06T05:54:27;95704.56;;;17.42
71640;BMP280;60912;48.968;10.124;2023-08-06T05:56:57;95709.09;;;17.49
71640;BMP280;60912;48.968;10.124;2023-08-06T06:03:05;95702.94;;;17.26
71640;BMP280;60912;48.968;10.124;2023-08-06T06:06:09;95689.31;;;17.06
71640;BMP280;60912;48.968;10.124;2023-08-06T06:09:12;95700.81;;;17.12
71640;BMP280;60912;48.968;10.124;2023-08-06T06:11:38;95698.63;;;17.11
71640;BMP280;60912;48.968;10.124;2023-08-06T06:14:12;95704.75;;;16.84
71640;BMP280;60912;48.968;10.124;2023-08-06T06:16:44;95702.44;;;16.55
71640;BMP280;60912;48.968;10.124;2023-08-06T06:19:09;95695.53;;;16.56
71640;BMP280;60912;48.968;10.124;2023-08-06T06:21:35;95703.88;;;16.68
71640;BMP280;60912;48.968;10.124;2023-08-06T06:24:06;95705.56;;;16.61
71640;BMP280;60912;48.968;10.124;2023-08-06T06:26:32;95710.38;;;16.73
71640;BMP280;60912;48.968;10.124;2023-08-06T06:29:01;95713.59;;;16.92
71640;BMP280;60912;48.968;10.124;2023-08-06T06:31:30;95720.38;;;16.89
71640;BMP280;60912;48.968;10.124;2023-08-06T06:33:55;95708.16;;;16.94
71640;BMP280;60912;48.968;10.124;2023-08-06T06:36:21;95713.97;;;16.87
71640;BMP280;60912;48.968;10.124;2023-08-06T06:38:52;95704.75;;;16.84
71640;BMP280;60912;48.968;10.124;2023-08-06T06:41:17;95712.22;;;17.05
71640;BMP280;60912;48.968;10.124;2023-08-06T06:43:45;95710.31;;;17.72
71640;BMP280;60912;48.968;10.124;2023-08-06T06:46:11;95713.88;;;18.40
71640;BMP280;60912;48.968;10.124;2023-08-06T06:48:37;95714.81;;;19.01
71640;BMP280;60912;48.968;10.124;2023-08-06T06:51:02;95714.97;;;18.90
71640;BMP280;60912;48.968;10.124;2023-08-06T06:53:28;95710.22;;;18.79
71640;BMP280;60912;48.968;10.124;2023-08-06T06:56:04;95711.81;;;18.54
71640;BMP280;60912;48.968;10.124;2023-08-06T06:58:30;95714.31;;;18.48
71640;BMP280;60912;48.968;10.124;2023-08-06T07:00:56;95714.94;;;18.06
71640;BMP280;60912;48.968;10.124;2023-08-06T07:03:27;95709.38;;;18.20
71640;BMP280;60912;48.968;10.124;2023-08-06T07:05:57;95701.38;;;18.41
71640;BMP280;60912;48.968;10.124;2023-08-06T07:08:24;95704.31;;;18.30
71640;BMP280;60912;48.968;10.124;2023-08-06T07:10:49;95715.00;;;18.08
71640;BMP280;60912;48.968;10.124;2023-08-06T07:13:15;95713.66;;;17.95
71640;BMP280;60912;48.968;10.124;2023-08-06T07:15:51;95711.84;;;17.75
71640;BMP280;60912;48.968;10.124;2023-08-06T07:18:16;95714.09;;;17.64
71640;BMP280;60912;48.968;10.124;2023-08-06T07:20:42;95720.41;;;17.40
71640;BMP280;60912;48.968;10.124;2023-08-06T07:23:15;95717.47;;;17.24
71640;BMP280;60912;48.968;10.124;2023-08-06T07:25:40;95717.81;;;17.30
71640;BMP280;60912;48.968;10.124;2023-08-06T07:28:06;95728.38;;;17.20
71640;BMP280;60912;48.968;10.124;2023-08-06T07:30:38;95726.03;;;17.03
71640;BMP280;60912;48.968;10.124;2023-08-06T07:33:03;95726.38;;;17.09
71640;BMP280;60912;48.968;10.124;2023-08-06T07:35:29;95729.91;;;16.98
71640;BMP280;60912;48.968;10.124;2023-08-06T07:37:54;95722.16;;;17.33
71640;BMP280;60912;48.968;10.124;2023-08-06T07:40:22;95715.91;;;17.46
71640;BMP280;60912;48.968;10.124;2023-08-06T07:42:48;95717.44;;;17.75
71640;BMP280;60912;48.968;10.124;2023-08-06T07:45:13;95719.34;;;17.58
71640;BMP280;60912;48.968;10.124;2023-08-06T07:47:42;95719.47;;;17.35
71640;BMP280;60912;48.968;10.124;2023-08-06T07:50:08;95724.66;;;17.41
71640;BMP280;60912;48.968;10.124;2023-08-06T07:52:34;95726.47;;;17.11
71640;BMP280;60912;48.968;10.124;2023-08-06T07:54:59;95730.34;;;17.17
71640;BMP280;60912;48.968;10.124;2023-08-06T07:57:26;95726.94;;;17.19
71640;BMP280;60912;48.968;10.124;2023-08-06T07:59:52;95724.97;;;17.22
71640;BMP280;60912;48.968;10.124;2023-08-06T08:02:23;95728.72;;;16.89
71640;BMP280;60912;48.968;10.124;2023-08-06T08:07:52;95726.28;;;16.95
71640;BMP280;60912;48.968;10.124;2023-08-06T08:10:17;95728.44;;;16.97
71640;BMP280;60912;48.968;10.124;2023-08-06T08:12:43;95721.34;;;16.94
71640;BMP280;60912;48.968;10.124;2023-08-06T08:15:11;95732.16;;;16.76
71640;BMP280;60912;48.968;10.124;2023-08-06T08:17:36;95730.44;;;16.83
71640;BMP280;60912;48.968;10.124;2023-08-06T08:20:02;95734.53;;;16.93
71640;BMP280;60912;48.968;10.124;2023-08-06T08:22:28;95738.72;;;17.06
71640;BMP280;60912;48.968;10.124;2023-08-06T08:24:53;95730.66;;;16.87
71640;BMP280;60912;48.968;10.124;2023-08-06T08:27:18;95734.16;;;16.99
71640;BMP280;60912;48.968;10.124;2023-08-06T08:29:44;95735.84;;;17.04
71640;BMP280;60912;48.968;10.124;2023-08-06T08:32:10;95740.72;;;16.92
71640;BMP280;60912;48.968;10.124;2023-08-06T08:34:35;95740.00;;;16.80
71640;BMP280;60912;48.968;10.124;2023-08-06T08:37:00;95733.31;;;16.85
71640;BMP280;60912;48.968;10.124;2023-08-06T08:39:26;95733.91;;;16.95
71640;BMP280;60912;48.968;10.124;2023-08-06T08:41:52;95727.38;;;17.02
71640;BMP280;60912;48.968;10.124;2023-08-06T08:44:17;95730.59;;;17.10
71640;BMP280;60912;48.968;10.124;2023-08-06T08:46:44;95732.47;;;16.82
71640;BMP280;60912;48.968;10.124;2023-08-06T08:49:10;95745.22;;;16.74
71640;BMP280;60912;48.968;10.124;2023-08-06T08:51:36;95744.88;;;16.67
71640;BMP280;60912;48.968;10.124;2023-08-06T08:54:07;95737.53;;;16.26
71640;BMP280;60912;48.968;10.124;2023-08-06T08:56:33;95743.53;;;16.45
71640;BMP280;60912;48.968;10.124;2023-08-06T08:58:58;95748.16;;;16.52
71640;BMP280;60912;48.968;10.124;2023-08-06T09:01:25;95743.19;;;16.51
71640;BMP280;60912;48.968;10.124;2023-08-06T09:03:51;95739.53;;;16.48
71640;BMP280;60912;48.968;10.124;2023-08-06T09:06:17;95741.59;;;16.59
71640;BMP280;60912;48.968;10.124;2023-08-06T09:08:56;95749.31;;;16.73
71640;BMP280;60912;48.968;10.124;2023-08-06T09:11:21;95748.00;;;17.10
71640;BMP280;60912;48.968;10.124;2023-08-06T09:13:47;95745.31;;;17.24
71640;BMP280;60912;48.968;10.124;2023-08-06T09:16:13;95745.63;;;17.42
71640;BMP280;60912;48.968;10.124;2023-08-06T09:18:39;95752.88;;;17.35
71640;BMP280;60912;48.968;10.124;2023-08-06T09:21:04;95744.88;;;17.16
71640;BMP280;60912;48.968;10.124;2023-08-06T09:23:31;95748.78;;;16.99
71640;BMP280;60912;48.968;10.124;2023-08-06T09:25:57;95744.50;;;17.10
71640;BMP280;60912;48.968;10.124;2023-08-06T09:28:23;95736.84;;;17.22
71640;BMP280;60912;48.968;10.124;2023-08-06T09:30:49;95734.13;;;17.36
71640;BMP280;60912;48.968;10.124;2023-08-06T09:33:18;95734.63;;;17.57
71640;BMP280;60912;48.968;10.124;2023-08-06T09:35:46;95740.47;;;17.89
71640;BMP280;60912;48.968;10.124;2023-08-06T09:38:12;95742.78;;;17.92
71640;BMP280;60912;48.968;10.124;2023-08-06T09:40:38;95744.53;;;17.60
71640;BMP280;60912;48.968;10.124;2023-08-06T09:43:04;95743.53;;;17.67
71640;BMP280;60912;48.968;10.124;2023-08-06T09:45:32;95739.44;;;17.82
71640;BMP280;60912;48.968;10.124;2023-08-06T09:47:59;95736.69;;;17.96
71640;BMP280;60912;48.968;10.124;2023-08-06T09:50:32;95734.09;;;18.00
71640;BMP280;60912;48.968;10.124;2023-08-06T09:52:59;95731.75;;;18.22
71640;BMP280;60912;48.968;10.124;2023-08-06T09:55:25;95725.78;;;18.27
71640;BMP280;60912;48.968;10.124;2023-08-06T09:57:54;95726.63;;;18.43
71640;BMP280;60912;48.968;10.124;2023-08-06T10:00:20;95727.94;;;18.56
71640;BMP280;60912;48.968;10.124;2023-08-06T10:02:46;95723.63;;;18.26
71640;BMP280;60912;48.968;10.124;2023-08-06T10:05:12;95715.91;;;17.85
71640;BMP280;60912;48.968;10.124;2023-08-06T10:07:39;95720.28;;;18.02
71640;BMP280;60912;48.968;10.124;2023-08-06T10:10:05;95712.72;;;17.91
71640;BMP280;60912;48.968;10.124;2023-08-06T10:12:37;95728.47;;;17.73
71640;BMP280;60912;48.968;10.124;2023-08-06T10:15:10;95723.47;;;17.44
71640;BMP280;60912;48.968;10.124;2023-08-06T10:17:36;95720.00;;;17.45
71640;BMP280;60912;48.968;10.124;2023-08-06T10:20:07;95728.31;;;17.43
71640;BMP280;60912;48.968;10.124;2023-08-06T10:22:33;95724.97;;;17.22
71640;BMP280;60912;48.968;10.124;2023-08-06T10:25:02;95722.53;;;17.28
71640;BMP280;60912;48.968;10.124;2023-08-06T10:27:39;95722.63;;;17.04
71640;BMP280;60912;48.968;10.124;2023-08-06T10:30:24;95719.78;;;16.91
71640;BMP280;60912;48.968;10.124;2023-08-06T10:32:55;95723.19;;;16.78
71640;BMP280;60912;48.968;10.124;2023-08-06T10:38:19;95720.81;;;17.09
71640;BMP280;60912;48.968;10.124;2023-08-06T10:45:52;95718.75;;;18.67
71640;BMP280;60912;48.968;10.124;2023-08-06T10:51:02;95723.34;;;19.19
71640;BMP280;60912;48.968;10.124;2023-08-06T10:53:27;95724.03;;;19.04
71640;BMP280;60912;48.968;10.124;2023-08-06T10:55:53;95710.16;;;19.06
71640;BMP280;60912;48.968;10.124;2023-08-06T10:58:18;95716.00;;;18.83
71640;BMP280;60912;48.968;10.124;2023-08-06T11:00:44;95714.28;;;19.05
71640;BMP280;60912;48.968;10.124;2023-08-06T11:03:09;95719.41;;;19.24
71640;BMP280;60912;48.968;10.124;2023-08-06T11:05:35;95705.38;;;19.38
71640;BMP280;60912;48.968;10.124;2023-08-06T11:08:01;95712.44;;;19.54
71640;BMP280;60912;48.968;10.124;2023-08-06T11:10:26;95727.06;;;19.53
71640;BMP280;60912;48.968;10.124;2023-08-06T11:12:52;95724.75;;;19.49
71640;BMP280;60912;48.968;10.124;2023-08-06T11:15:19;95725.53;;;19.20
71640;BMP280;60912;48.968;10.124;2023-08-06T11:17:45;95722.94;;;19.40
71640;BMP280;60912;48.968;10.124;2023-08-06T11:20:10;95720.03;;;18.93
71640;BMP280;60912;48.968;10.124;2023-08-06T11:22:36;95717.00;;;19.03
71640;BMP280;60912;48.968;10.124;2023-08-06T11:25:02;95732.50;;;19.06
71640;BMP280;60912;48.968;10.124;2023-08-06T11:27:28;95722.38;;;18.56
71640;BMP280;60912;48.968;10.124;2023-08-06T11:29:54;95724.50;;;18.03
71640;BMP280;60912;48.968;10.124;2023-08-06T11:32:19;95715.72;;;18.36
71640;BMP280;60912;48.968;10.124;2023-08-06T11:34:45;95722.22;;;18.67
71640;BMP280;60912;48.968;10.124;2023-08-06T11:37:10;95717.94;;;19.07
71640;BMP280;60912;48.968;10.124;2023-08-06T11:39:37;95725.28;;;18.44
71640;BMP280;60912;48.968;10.124;2023-08-06T11:42:04;95717.66;;;17.79
71640;BMP280;60912;48.968;10.124;2023-08-06T11:44:31;95717.97;;;17.85
71640;BMP280;60912;48.968;10.124;2023-08-06T11:47:00;95712.81;;;17.79
71640;BMP280;60912;48.968;10.124;2023-08-06T11:49:49;95721.84;;;18.05
71640;BMP280;60912;48.968;10.124;2023-08-06T11:54:45;95732.56;;;17.97
71640;BMP280;60912;48.968;10.124;2023-08-06T11:57:11;95728.94;;;17.55
71640;BMP280;60912;48.968;10.124;2023-08-06T11:59:38;95738.56;;;17.66
71640;BMP280;60912;48.968;10.124;2023-08-06T12:02:04;95731.63;;;17.53
71640;BMP280;60912;48.968;10.124;2023-08-06T12:05:02;95729.84;;;17.85
71640;BMP280;60912;48.968;10.124;2023-08-06T12:07:30;95732.91;;;18.30
71640;BMP280;60912;48.968;10.124;2023-08-06T12:09:56;95737.56;;;18.26
71640;BMP280;60912;48.968;10.124;2023-08-06T12:12:23;95745.94;;;18.26
71640;BMP280;60912;48.968;10.124;2023-08-06T12:14:48;95755.19;;;18.03
71640;BMP280;60912;48.968;10.124;2023-08-06T12:17:13;95756.66;;;17.79
71640;BMP280;60912;48.968;10.124;2023-08-06T12:19:39;95770.06;;;17.68
71640;BMP280;60912;48.968;10.124;2023-08-06T12:22:04;95753.41;;;17.96
71640;BMP280;60912;48.968;10.124;2023-08-06T12:24:30;95759.50;;;17.53
71640;BMP280;60912;48.968;10.124;2023-08-06T12:26:57;95769.75;;;17.26
71640;BMP280;60912;48.968;10.124;2023-08-06T12:29:23;95768.66;;;17.31
71640;BMP280;60912;48.968;10.124;2023-08-06T12:31:48;95774.59;;;17.25
71640;BMP280;60912;48.968;10.124;2023-08-06T12:34:16;95774.75;;;17.15
71640;BMP280;60912;48.968;10.124;2023-08-06T12:36:42;95780.13;;;17.37
71640;BMP280;60912;48.968;10.124;2023-08-06T12:39:07;95775.38;;;17.39
71640;BMP280;60912;48.968;10.124;2023-08-06T12:41:33;95784.31;;;17.24
71640;BMP280;60912;48.968;10.124;2023-08-06T12:43:58;95791.13;;;17.09
71640;BMP280;60912;48.968;10.124;2023-08-06T12:46:23;95792.88;;;16.80
71640;BMP280;60912;48.968;10.124;2023-08-06T12:48:49;95803.38;;;16.69
71640;BMP280;60912;48.968;10.124;2023-08-06T12:51:14;95802.69;;;16.57
71640;BMP280;60912;48.968;10.124;2023-08-06T12:53:39;95800.97;;;16.17
71640;BMP280;60912;48.968;10.124;2023-08-06T12:56:05;95819.13;;;16.30
71640;BMP280;60912;48.968;10.124;2023-08-06T12:58:30;95804.50;;;16.30
71640;BMP280;60912;48.968;10.124;2023-08-06T13:00:56;95804.34;;;16.28
71640;BMP280;60912;48.968;10.124;2023-08-06T13:03:22;95811.59;;;16.33
71640;BMP280;60912;48.968;10.124;2023-08-06T13:05:47;95821.53;;;16.47
71640;BMP280;60912;48.968;10.124;2023-08-06T13:08:12;95831.00;;;16.42
71640;BMP280;60912;48.968;10.124;2023-08-06T13:10:38;95828.19;;;16.54
71640;BMP280;60912;48.968;10.124;2023-08-06T13:13:03;95826.75;;;16.64
71640;BMP280;60912;48.968;10.124;2023-08-06T13:15:29;95824.06;;;16.43
71640;BMP280;60912;48.968;10.124;2023-08-06T13:17:54;95826.97;;;16.45
71640;BMP280;60912;48.968;10.124;2023-08-06T13:20:20;95829.63;;;16.32
71640;BMP280;60912;48.968;10.124;2023-08-06T13:22:46;95833.94;;;16.11
71640;BMP280;60912;48.968;10.124;2023-08-06T13:25:12;95843.09;;;16.02
71640;BMP280;60912;48.968;10.124;2023-08-06T13:27:39;95851.72;;;15.85
71640;BMP280;60912;48.968;10.124;2023-08-06T13:30:06;95857.44;;;15.87
71640;BMP280;60912;48.968;10.124;2023-08-06T13:32:32;95860.31;;;15.78
71640;BMP280;60912;48.968;10.124;2023-08-06T13:34:59;95863.75;;;15.66
71640;BMP280;60912;48.968;10.124;2023-08-06T13:37:24;95879.19;;;15.69
71640;BMP280;60912;48.968;10.124;2023-08-06T13:39:49;95878.16;;;15.53
71640;BMP280;60912;48.968;10.124;2023-08-06T13:42:15;95869.91;;;15.44
71640;BMP280;60912;48.968;10.124;2023-08-06T13:44:40;95866.91;;;15.30
71640;BMP280;60912;48.968;10.124;2023-08-06T13:47:05;95875.44;;;15.23
71640;BMP280;60912;48.968;10.124;2023-08-06T13:49:31;95868.63;;;15.35
71640;BMP280;60912;48.968;10.124;2023-08-06T13:51:56;95883.66;;;15.42
71640;BMP280;60912;48.968;10.124;2023-08-06T13:54:21;95884.38;;;15.21
71640;BMP280;60912;48.968;10.124;2023-08-06T13:56:46;95886.97;;;15.29
71640;BMP280;60912;48.968;10.124;2023-08-06T13:59:12;95880.84;;;15.20
71640;BMP280;60912;48.968;10.124;2023-08-06T14:01:39;95886.25;;;15.28
71640;BMP280;60912;48.968;10.124;2023-08-06T14:04:07;95898.66;;;15.48
71640;BMP280;60912;48.968;10.124;2023-08-06T14:06:33;95885.81;;;15.43
71640;BMP280;60912;48.968;10.124;2023-08-06T14:08:58;95890.06;;;15.44
71640;BMP280;60912;48.968;10.124;2023-08-06T14:11:24;95890.13;;;15.56
71640;BMP280;60912;48.968;10.124;2023-08-06T14:13:49;95889.75;;;15.50
71640;BMP280;60912;48.968;10.124;2023-08-06T14:16:15;95907.00;;;15.48
71640;BMP280;60912;48.968;10.124;2023-08-06T14:18:40;95900.38;;;15.53
71640;BMP280;60912;48.968;10.124;2023-08-06T14:21:06;95908.97;;;15.57
71640;BMP280;60912;48.968;10.124;2023-08-06T14:23:32;95910.31;;;15.78
71640;BMP280;60912;48.968;10.124;2023-08-06T14:25:57;95909.50;;;15.87
71640;BMP280;60912;48.968;10.124;2023-08-06T14:28:23;95909.53;;;15.98
71640;BMP280;60912;48.968;10.124;2023-08-06T14:30:48;95908.53;;;16.15
71640;BMP280;60912;48.968;10.124;2023-08-06T14:33:14;95901.91;;;16.32
71640;BMP280;60912;48.968;10.124;2023-08-06T14:35:39;95909.41;;;16.29
71640;BMP280;60912;48.968;10.124;2023-08-06T14:38:04;95905.97;;;16.19
71640;BMP280;60912;48.968;10.124;2023-08-06T14:40:30;95907.84;;;16.26
71640;BMP280;60912;48.968;10.124;2023-08-06T14:43:00;95924.53;;;16.26